Time,TemperatureF,DewpointF,PressureIn,WindDirection,WindDirectionDegrees,WindSpeedMPH,WindSpeedGustMPH,Humidity,HourlyPrecipIn,Conditions,Clouds,dailyrainin,SoftwareType,DateUTC
2013-02-23 00:01:00,34.0,29.1,29.92,SW,226,0.0,0.0,82,0.00,,---,0.00,VWS V14.01,2013-02-23 05:01:00,
2013-02-23 00:02:00,34.0,29.1,29.92,SW,217,0.0,0.0,82,0.00,,---,0.00,VWS V14.01,2013-02-23 05:02:00,
2013-02-23 00:07:00,34.0,29.1,29.92,SW,221,0.0,0.0,82,0.00,,---,0.00,VWS V14.01,2013-02-23 05:07:00,
2013-02-23 00:08:00,34.0,29.1,29.92,SW,221,0.0,0.0,82,0.00,,---,0.00,VWS V14.01,2013-02-23 05:08:00,
2013-02-23 00:13:00,34.0,29.1,29.92,WSW,258,0.0,0.0,82,0.00,,---,0.00,VWS V14.01,2013-02-23 05:13:00,
2013-02-23 00:18:00,34.0,29.1,29.92,West,280,0.0,3.6,82,0.00,,---,0.00,VWS V14.01,2013-02-23 05:18:00,
2013-02-23 00:23:00,34.0,29.1,29.92,SSE,149,0.0,3.6,82,0.00,,---,0.00,VWS V14.01,2013-02-23 05:23:00,
2013-02-23 00:28:00,34.0,29.4,29.92,WNW,285,0.0,3.6,83,0.00,,---,0.00,VWS V14.01,2013-02-23 05:28:00,
2013-02-23 00:33:00,33.8,28.9,29.92,WSW,237,0.0,7.2,82,0.00,,---,0.00,VWS V14.01,2013-02-23 05:33:00,
2013-02-23 00:38:00,33.8,28.9,29.92,West,264,2.7,7.2,82,0.00,,---,0.00,VWS V14.01,2013-02-23 05:38:00,
2013-02-23 00:43:00,33.6,28.4,29.92,SW,234,0.0,7.2,81,0.00,,---,0.00,VWS V14.01,2013-02-23 05:43:00,
2013-02-23 00:48:00,33.6,28.4,29.92,SSW,210,0.0,7.2,81,0.00,,---,0.00,VWS V14.01,2013-02-23 05:48:00,
2013-02-23 00:53:00,33.4,28.2,29.92,SW,219,0.0,7.2,81,0.00,,---,0.00,VWS V14.01,2013-02-23 05:53:00,
2013-02-23 00:58:00,33.6,28.4,29.92,SW,222,0.0,7.2,81,0.00,,---,0.00,VWS V14.01,2013-02-23 05:58:00,
2013-02-23 01:03:00,33.6,28.1,29.92,SW,225,0.0,0.0,80,0.00,,---,0.00,VWS V14.01,2013-02-23 06:03:00,
2013-02-23 01:08:00,33.6,28.1,29.92,SW,233,0.0,0.0,80,0.00,,---,0.00,VWS V14.01,2013-02-23 06:08:00,
2013-02-23 01:13:00,33.6,28.1,29.92,WSW,237,0.0,0.0,80,0.00,,---,0.00,VWS V14.01,2013-02-23 06:13:00,
2013-02-23 01:18:00,33.6,28.1,29.92,WSW,238,0.0,0.0,80,0.00,,---,0.00,VWS V14.01,2013-02-23 06:18:00,
2013-02-23 01:23:00,33.6,28.1,29.92,SW,224,0.0,0.0,80,0.00,,---,0.00,VWS V14.01,2013-02-23 06:23:00,
2013-02-23 01:28:00,33.6,28.1,29.92,SW,224,0.0,3.1,80,0.00,,---,0.00,VWS V14.01,2013-02-23 06:28:00,
2013-02-23 01:33:00,33.6,28.1,29.89,SW,225,0.0,3.1,80,0.00,,---,0.00,VWS V14.01,2013-02-23 06:33:00,
2013-02-23 01:38:00,33.4,28.2,29.89,SW,231,0.0,3.1,81,0.00,,---,0.00,VWS V14.01,2013-02-23 06:38:00,
2013-02-23 01:43:00,33.4,28.2,29.89,SW,235,0.0,3.1,81,0.00,,---,0.00,VWS V14.01,2013-02-23 06:43:00,
2013-02-23 01:48:00,33.3,28.1,29.89,South,190,0.0,3.1,81,0.00,,---,0.00,VWS V14.01,2013-02-23 06:48:00,
2013-02-23 01:54:00,33.3,28.4,29.89,South,190,0.0,3.1,82,0.00,,---,0.00,VWS V14.01,2013-02-23 06:54:00,
2013-02-23 01:59:00,33.3,28.4,29.89,South,190,0.0,3.1,82,0.00,,---,0.00,VWS V14.01,2013-02-23 06:59:00,
2013-02-23 02:04:00,33.3,28.4,29.89,South,190,0.0,0.0,82,0.00,,---,0.00,VWS V14.01,2013-02-23 07:04:00,
2013-02-23 02:09:00,33.3,28.4,29.89,SW,216,0.0,2.2,82,0.00,,---,0.00,VWS V14.01,2013-02-23 07:09:00,
2013-02-23 02:14:00,33.1,28.2,29.89,WSW,254,0.0,3.1,82,0.00,,---,0.00,VWS V14.01,2013-02-23 07:14:00,
2013-02-23 02:19:00,33.1,28.2,29.89,SW,217,2.7,3.1,82,0.00,,---,0.00,VWS V14.01,2013-02-23 07:19:00,
2013-02-23 02:24:00,33.1,28.2,29.89,SSW,210,3.1,3.6,82,0.00,,---,0.00,VWS V14.01,2013-02-23 07:24:00,
2013-02-23 02:29:00,33.1,27.9,29.89,SW,222,0.0,3.6,81,0.00,,---,0.00,VWS V14.01,2013-02-23 07:29:00,
2013-02-23 02:34:00,33.1,27.6,29.89,WSW,241,0.0,3.6,80,0.00,,---,0.00,VWS V14.01,2013-02-23 07:34:00,
2013-02-23 02:39:00,33.1,27.2,29.89,SW,230,0.0,4.0,79,0.00,,---,0.00,VWS V14.01,2013-02-23 07:39:00,
2013-02-23 02:44:00,32.9,26.4,29.89,WSW,251,0.0,4.0,77,0.00,,---,0.00,VWS V14.01,2013-02-23 07:44:00,
2013-02-23 02:49:00,32.7,25.2,29.89,NW,323,0.0,4.0,73,0.00,,---,0.00,VWS V14.01,2013-02-23 07:49:00,
2013-02-23 02:54:00,32.7,24.5,29.89,North,10,0.0,4.0,71,0.00,,---,0.00,VWS V14.01,2013-02-23 07:54:00,
2013-02-23 02:59:00,32.7,23.4,29.89,WSW,238,0.0,4.0,68,0.00,,---,0.00,VWS V14.01,2013-02-23 07:59:00,
2013-02-23 03:04:00,32.7,21.4,29.89,SW,216,5.8,5.8,63,0.00,,---,0.00,VWS V14.01,2013-02-23 08:04:00,
2013-02-23 03:09:00,32.5,21.2,29.89,SW,222,0.0,5.8,63,0.00,,---,0.00,VWS V14.01,2013-02-23 08:09:00,
2013-02-23 03:14:00,32.5,21.2,29.89,NNE,31,0.0,5.8,63,0.00,,---,0.00,VWS V14.01,2013-02-23 08:14:00,
2013-02-23 03:19:00,32.4,20.6,29.89,WNW,283,0.0,5.8,62,0.00,,---,0.00,VWS V14.01,2013-02-23 08:19:00,
2013-02-23 03:24:00,32.4,20.6,29.89,West,271,0.0,5.8,62,0.00,,---,0.00,VWS V14.01,2013-02-23 08:24:00,
2013-02-23 03:29:00,32.2,20.1,29.89,WSW,257,0.0,5.8,60,0.00,,---,0.00,VWS V14.01,2013-02-23 08:29:00,
2013-02-23 03:34:00,32.2,20.1,29.89,WSW,245,0.0,5.8,60,0.00,,---,0.00,VWS V14.01,2013-02-23 08:34:00,
2013-02-23 03:39:00,32.0,19.9,29.89,SW,234,0.0,5.8,60,0.00,,---,0.00,VWS V14.01,2013-02-23 08:39:00,
2013-02-23 03:44:00,31.8,19.3,29.89,West,259,0.0,5.8,59,0.00,,---,0.00,VWS V14.01,2013-02-23 08:44:00,
2013-02-23 03:49:00,31.8,19.3,29.89,WSW,238,0.0,5.8,59,0.00,,---,0.00,VWS V14.01,2013-02-23 08:49:00,
2013-02-23 03:54:00,31.6,18.7,29.89,WNW,287,3.6,5.8,58,0.00,,---,0.00,VWS V14.01,2013-02-23 08:54:00,
2013-02-23 03:59:00,31.6,18.7,29.89,North,6,2.7,5.8,58,0.00,,---,0.00,VWS V14.01,2013-02-23 08:59:00,
2013-02-23 04:04:00,31.6,18.3,29.89,WNW,301,0.0,5.4,57,0.00,,---,0.00,VWS V14.01,2013-02-23 09:04:00,
2013-02-23 04:09:00,31.6,18.3,29.89,WSW,248,4.0,5.4,57,0.00,,---,0.00,VWS V14.01,2013-02-23 09:09:00,
2013-02-23 04:14:00,31.5,18.1,29.89,NNE,29,0.0,5.4,57,0.00,,---,0.00,VWS V14.01,2013-02-23 09:14:00,
2013-02-23 04:19:00,31.3,17.9,29.89,West,272,0.0,5.4,57,0.00,,---,0.00,VWS V14.01,2013-02-23 09:19:00,
2013-02-23 04:24:00,31.3,17.9,29.89,WSW,256,0.0,5.4,57,0.00,,---,0.00,VWS V14.01,2013-02-23 09:24:00,
2013-02-23 04:29:00,31.1,17.8,29.89,WSW,252,0.0,5.4,57,0.00,,---,0.00,VWS V14.01,2013-02-23 09:29:00,
2013-02-23 04:34:00,30.9,17.1,29.89,WSW,254,0.0,5.4,56,0.00,,---,0.00,VWS V14.01,2013-02-23 09:34:00,
2013-02-23 04:39:00,30.7,16.5,29.89,WNW,300,0.0,5.4,55,0.00,,---,0.00,VWS V14.01,2013-02-23 09:39:00,
2013-02-23 04:44:00,30.4,16.2,29.89,SW,219,0.0,5.4,55,0.00,,---,0.00,VWS V14.01,2013-02-23 09:44:00,
2013-02-23 04:50:00,30.4,16.2,29.89,South,179,0.0,5.4,55,0.00,,---,0.00,VWS V14.01,2013-02-23 09:50:00,
2013-02-23 04:55:00,30.4,15.7,29.89,West,261,0.0,5.4,54,0.00,,---,0.00,VWS V14.01,2013-02-23 09:55:00,
2013-02-23 05:00:00,30.2,15.1,29.89,West,275,0.0,0.0,53,0.00,,---,0.00,VWS V14.01,2013-02-23 10:00:00,
2013-02-23 05:05:00,30.2,15.6,29.92,West,268,0.0,2.2,54,0.00,,---,0.00,VWS V14.01,2013-02-23 10:05:00,
2013-02-23 05:10:00,30.2,15.6,29.92,WNW,286,0.0,2.2,54,0.00,,---,0.00,VWS V14.01,2013-02-23 10:10:00,
2013-02-23 05:15:00,30.0,14.9,29.92,WNW,286,0.0,3.1,53,0.00,,---,0.00,VWS V14.01,2013-02-23 10:15:00,
2013-02-23 05:20:00,29.8,13.8,29.92,West,267,0.0,5.8,51,0.00,,---,0.00,VWS V14.01,2013-02-23 10:20:00,
2013-02-23 05:25:00,29.7,13.7,29.92,West,260,0.0,5.8,51,0.00,,---,0.00,VWS V14.01,2013-02-23 10:25:00,
2013-02-23 05:30:00,29.5,13.0,29.92,NW,320,0.0,6.3,50,0.00,,---,0.00,VWS V14.01,2013-02-23 10:30:00,
2013-02-23 05:35:00,29.5,13.0,29.92,North,0,0.0,6.3,50,0.00,,---,0.00,VWS V14.01,2013-02-23 10:35:00,
2013-02-23 05:40:00,29.5,12.5,29.92,WSW,257,0.0,6.3,49,0.00,,---,0.00,VWS V14.01,2013-02-23 10:40:00,
2013-02-23 05:45:00,29.5,12.5,29.92,West,278,0.0,6.3,49,0.00,,---,0.00,VWS V14.01,2013-02-23 10:45:00,
2013-02-23 05:50:00,29.3,12.8,29.92,WNW,295,0.0,6.3,50,0.00,,---,0.00,VWS V14.01,2013-02-23 10:50:00,
2013-02-23 05:55:00,29.3,13.3,29.92,WSW,251,0.0,6.3,51,0.00,,---,0.00,VWS V14.01,2013-02-23 10:55:00,
2013-02-23 06:00:00,29.1,13.6,29.92,WSW,248,0.0,2.7,52,0.00,,---,0.00,VWS V14.01,2013-02-23 11:00:00,
2013-02-23 06:05:00,28.9,13.0,29.92,SW,231,2.7,3.1,51,0.00,,---,0.00,VWS V14.01,2013-02-23 11:05:00,
2013-02-23 06:10:00,28.9,13.5,29.92,SW,231,0.0,3.1,52,0.00,,---,0.00,VWS V14.01,2013-02-23 11:10:00,
2013-02-23 06:15:00,28.9,13.9,29.92,SSW,200,0.0,3.1,53,0.00,,---,0.00,VWS V14.01,2013-02-23 11:15:00,
2013-02-23 06:20:00,28.9,13.9,29.92,NW,312,0.0,4.0,53,0.00,,---,0.00,VWS V14.01,2013-02-23 11:20:00,
2013-02-23 06:25:00,28.9,13.9,29.92,WSW,244,0.0,4.0,53,0.00,,---,0.00,VWS V14.01,2013-02-23 11:25:00,
2013-02-23 06:30:00,28.8,14.2,29.92,West,259,0.0,4.0,54,0.00,,---,0.00,VWS V14.01,2013-02-23 11:30:00,
2013-02-23 06:35:00,28.8,14.2,29.92,NNW,344,0.0,4.0,54,0.00,,---,0.00,VWS V14.01,2013-02-23 11:35:00,
2013-02-23 06:40:00,28.6,14.1,29.92,West,267,0.0,4.0,54,0.00,,---,0.00,VWS V14.01,2013-02-23 11:40:00,
2013-02-23 06:45:00,28.6,14.1,29.92,WSW,240,0.0,4.0,54,0.00,,---,0.00,VWS V14.01,2013-02-23 11:45:00,
2013-02-23 06:50:00,28.8,14.2,29.92,WSW,244,0.0,4.0,54,0.00,,---,0.00,VWS V14.01,2013-02-23 11:50:00,
2013-02-23 06:55:00,28.8,14.2,29.92,West,261,0.0,4.0,54,0.00,,---,0.00,VWS V14.01,2013-02-23 11:55:00,
2013-02-23 07:00:00,28.6,14.1,29.92,WNW,282,0.0,0.0,54,0.00,,---,0.00,VWS V14.01,2013-02-23 12:00:00,
2013-02-23 07:05:00,28.6,13.6,29.92,NW,315,0.0,5.8,53,0.00,,---,0.00,VWS V14.01,2013-02-23 12:05:00,
2013-02-23 07:10:00,28.6,13.1,29.92,SSW,209,0.0,5.8,52,0.00,,---,0.00,VWS V14.01,2013-02-23 12:10:00,
2013-02-23 07:15:00,28.6,14.1,29.92,WSW,249,0.0,5.8,54,0.00,,---,0.00,VWS V14.01,2013-02-23 12:15:00,
2013-02-23 07:21:00,28.6,14.5,29.92,SW,234,0.0,5.8,55,0.00,,---,0.00,VWS V14.01,2013-02-23 12:21:00,
2013-02-23 07:26:00,28.6,14.5,29.92,NNW,336,0.0,5.8,55,0.00,,---,0.00,VWS V14.01,2013-02-23 12:26:00,
2013-02-23 07:31:00,28.6,14.5,29.92,WNW,295,3.1,5.8,55,0.00,,---,0.00,VWS V14.01,2013-02-23 12:31:00,
2013-02-23 07:36:00,28.6,14.5,29.92,SW,231,0.0,5.8,55,0.00,,---,0.00,VWS V14.01,2013-02-23 12:36:00,
2013-02-23 07:41:00,28.6,14.5,29.92,WSW,253,4.9,5.8,55,0.00,,---,0.00,VWS V14.01,2013-02-23 12:41:00,
2013-02-23 07:46:00,28.6,14.5,29.92,SW,233,0.0,5.8,55,0.00,,---,0.00,VWS V14.01,2013-02-23 12:46:00,
2013-02-23 07:51:00,28.6,14.9,29.92,SW,233,0.0,5.8,56,0.00,,---,0.00,VWS V14.01,2013-02-23 12:51:00,
2013-02-23 07:56:00,28.6,14.5,29.92,WSW,240,0.0,5.8,55,0.00,,---,0.00,VWS V14.01,2013-02-23 12:56:00,
2013-02-23 08:01:00,28.6,14.5,29.92,NNW,330,0.0,0.0,55,0.00,,---,0.00,VWS V14.01,2013-02-23 13:01:00,
2013-02-23 08:06:00,28.6,14.5,29.92,ESE,118,0.0,0.0,55,0.00,,---,0.00,VWS V14.01,2013-02-23 13:06:00,
2013-02-23 08:11:00,28.6,14.5,29.92,SW,231,0.0,4.0,55,0.00,,---,0.00,VWS V14.01,2013-02-23 13:11:00,
2013-02-23 08:16:00,28.6,14.5,29.92,SW,230,0.0,4.0,55,0.00,,---,0.00,VWS V14.01,2013-02-23 13:16:00,
2013-02-23 08:21:00,28.8,14.7,29.92,WSW,254,0.0,4.0,55,0.00,,---,0.00,VWS V14.01,2013-02-23 13:21:00,
2013-02-23 08:26:00,28.8,14.7,29.92,SW,236,4.0,4.0,55,0.00,,---,0.00,VWS V14.01,2013-02-23 13:26:00,
2013-02-23 08:31:00,29.1,14.6,29.92,SSW,210,0.0,4.0,54,0.00,,---,0.00,VWS V14.01,2013-02-23 13:31:00,
2013-02-23 08:36:00,29.5,14.4,29.92,SW,236,0.0,4.0,53,0.00,,---,0.00,VWS V14.01,2013-02-23 13:36:00,
2013-02-23 08:41:00,29.7,14.6,29.92,SSW,211,0.0,4.0,53,0.00,,---,0.00,VWS V14.01,2013-02-23 13:41:00,
2013-02-23 08:46:00,29.8,14.8,29.92,SW,234,0.0,5.8,53,0.00,,---,0.00,VWS V14.01,2013-02-23 13:46:00,
2013-02-23 08:51:00,30.7,15.6,29.92,WSW,257,0.0,5.8,53,0.00,,---,0.00,VWS V14.01,2013-02-23 13:51:00,
2013-02-23 08:56:00,32.2,15.5,29.92,WSW,244,0.0,5.8,50,0.00,,---,0.00,VWS V14.01,2013-02-23 13:56:00,
2013-02-23 09:01:00,31.8,14.7,29.92,SW,229,0.0,2.7,49,0.00,,---,0.00,VWS V14.01,2013-02-23 14:01:00,
2013-02-23 09:06:00,31.8,14.7,29.92,WSW,237,0.0,2.7,49,0.00,,---,0.00,VWS V14.01,2013-02-23 14:06:00,
2013-02-23 09:11:00,32.4,14.6,29.92,SW,230,4.5,4.5,48,0.00,,---,0.00,VWS V14.01,2013-02-23 14:11:00,
2013-02-23 09:16:00,33.1,15.3,29.95,WSW,253,0.0,4.5,48,0.00,,---,0.00,VWS V14.01,2013-02-23 14:16:00,
2013-02-23 09:21:00,33.1,14.8,29.95,West,277,0.0,4.5,46,0.00,,---,0.00,VWS V14.01,2013-02-23 14:21:00,
2013-02-23 09:26:00,33.3,14.9,29.95,West,277,3.6,4.5,46,0.00,,---,0.00,VWS V14.01,2013-02-23 14:26:00,
2013-02-23 09:34:00,33.4,14.6,29.95,WSW,237,2.7,4.5,45,0.00,,---,0.00,VWS V14.01,2013-02-23 14:34:00,
2013-02-23 09:41:00,34.5,15.6,29.95,NW,305,0.0,4.9,45,0.00,,---,0.00,VWS V14.01,2013-02-23 14:41:00,
2013-02-23 09:48:00,34.2,14.7,29.95,NW,305,0.0,5.4,44,0.00,,---,0.00,VWS V14.01,2013-02-23 14:48:00,
2013-02-23 09:53:00,34.0,14.5,29.95,NW,324,0.0,7.6,44,0.00,,---,0.00,VWS V14.01,2013-02-23 14:53:00,
2013-02-23 09:58:00,34.0,14.0,29.95,WNW,286,0.0,7.6,43,0.00,,---,0.00,VWS V14.01,2013-02-23 14:58:00,
2013-02-23 10:03:00,34.5,15.0,29.95,West,273,2.2,2.7,44,0.00,,---,0.00,VWS V14.01,2013-02-23 15:03:00,
2013-02-23 10:08:00,34.9,15.3,29.95,South,181,3.6,4.9,44,0.00,,---,0.00,VWS V14.01,2013-02-23 15:08:00,
2013-02-23 10:15:00,34.9,14.8,29.95,NNW,327,0.0,5.4,43,0.00,,---,0.00,VWS V14.01,2013-02-23 15:15:00,
2013-02-23 10:23:00,34.9,14.2,29.95,North,353,0.0,5.4,42,0.00,,---,0.00,VWS V14.01,2013-02-23 15:23:00,
2013-02-23 10:28:00,35.1,14.9,29.95,WNW,297,0.0,5.4,43,0.00,,---,0.00,VWS V14.01,2013-02-23 15:28:00,
2013-02-23 10:33:00,35.4,14.1,29.95,West,277,0.0,5.4,41,0.00,,---,0.00,VWS V14.01,2013-02-23 15:33:00,
2013-02-23 10:39:00,36.0,13.4,29.95,NNE,27,3.1,6.3,39,0.00,,---,0.00,VWS V14.01,2013-02-23 15:39:00,
2013-02-23 10:44:00,36.1,12.9,29.95,West,274,2.2,6.3,38,0.00,,---,0.00,VWS V14.01,2013-02-23 15:44:00,
2013-02-23 10:49:00,36.0,13.4,29.95,NNW,340,0.0,6.3,39,0.00,,---,0.00,VWS V14.01,2013-02-23 15:49:00,
2013-02-23 10:54:00,35.6,12.4,29.95,West,280,2.7,6.3,38,0.00,,---,0.00,VWS V14.01,2013-02-23 15:54:00,
2013-02-23 10:59:00,34.2,12.4,29.95,SW,217,3.6,7.2,40,0.00,,---,0.00,VWS V14.01,2013-02-23 15:59:00,
2013-02-23 11:04:00,34.9,14.2,29.95,WNW,301,3.1,5.8,42,0.00,,---,0.00,VWS V14.01,2013-02-23 16:04:00,
2013-02-23 11:09:00,35.6,13.0,29.95,North,353,6.3,6.3,39,0.00,,---,0.00,VWS V14.01,2013-02-23 16:09:00,
2013-02-23 11:14:00,35.8,12.6,29.95,SSW,194,0.0,6.3,38,0.00,,---,0.00,VWS V14.01,2013-02-23 16:14:00,
2013-02-23 11:19:00,35.8,13.2,29.95,West,277,0.0,6.3,39,0.00,,---,0.00,VWS V14.01,2013-02-23 16:19:00,
2013-02-23 11:24:00,36.1,12.9,29.95,WSW,250,0.0,8.7,38,0.00,,---,0.00,VWS V14.01,2013-02-23 16:24:00,
2013-02-23 11:29:00,36.3,12.4,29.95,WSW,241,2.7,8.7,37,0.00,,---,0.00,VWS V14.01,2013-02-23 16:29:00,
2013-02-23 11:34:00,36.5,12.5,29.95,SSW,205,4.0,8.7,37,0.00,,---,0.00,VWS V14.01,2013-02-23 16:34:00,
2013-02-23 11:39:00,36.5,12.5,29.95,WSW,253,0.0,10.1,37,0.00,,---,0.00,VWS V14.01,2013-02-23 16:39:00,
2013-02-23 11:44:00,36.9,12.2,29.95,West,262,3.6,10.1,36,0.00,,---,0.00,VWS V14.01,2013-02-23 16:44:00,
2013-02-23 11:49:00,37.4,12.7,29.95,SE,138,0.0,10.1,36,0.00,,---,0.00,VWS V14.01,2013-02-23 16:49:00,
2013-02-23 11:54:00,37.2,12.5,29.95,SSW,200,0.0,10.1,36,0.00,,---,0.00,VWS V14.01,2013-02-23 16:54:00,
2013-02-23 11:59:00,37.2,12.5,29.95,NW,320,4.0,10.1,36,0.00,,---,0.00,VWS V14.01,2013-02-23 16:59:00,
2013-02-23 12:04:00,37.4,12.7,29.95,SW,224,2.7,6.3,36,0.00,,---,0.00,VWS V14.01,2013-02-23 17:04:00,
2013-02-23 12:09:00,37.8,12.3,29.95,West,275,0.0,6.3,35,0.00,,---,0.00,VWS V14.01,2013-02-23 17:09:00,
2013-02-23 12:14:00,36.5,11.9,29.95,WNW,292,0.0,6.3,36,0.00,,---,0.00,VWS V14.01,2013-02-23 17:14:00,
2013-02-23 12:20:00,35.4,13.5,29.95,WSW,241,0.0,6.3,40,0.00,,---,0.00,VWS V14.01,2013-02-23 17:20:00,
2013-02-23 12:25:00,34.9,13.0,29.95,WSW,257,3.6,6.3,40,0.00,,---,0.00,VWS V14.01,2013-02-23 17:25:00,
2013-02-23 12:30:00,34.5,12.7,29.98,West,260,3.6,6.7,40,0.00,,---,0.00,VWS V14.01,2013-02-23 17:30:00,
2013-02-23 12:35:00,34.3,14.3,29.98,West,271,0.0,6.7,43,0.00,,---,0.00,VWS V14.01,2013-02-23 17:35:00,
2013-02-23 12:40:00,36.1,14.8,29.98,NNE,27,3.1,6.7,41,0.00,,---,0.00,VWS V14.01,2013-02-23 17:40:00,
2013-02-23 12:45:00,35.8,11.2,29.98,SW,226,2.2,7.2,36,0.00,,---,0.00,VWS V14.01,2013-02-23 17:45:00,
2013-02-23 12:50:00,35.8,11.9,29.98,WNW,284,0.0,7.2,37,0.00,,---,0.00,VWS V14.01,2013-02-23 17:50:00,
2013-02-23 12:55:00,35.1,11.9,29.98,NNW,346,2.7,7.2,38,0.00,,---,0.00,VWS V14.01,2013-02-23 17:55:00,
2013-02-23 13:00:00,34.9,13.0,29.98,SW,228,3.6,4.5,40,0.00,,---,0.00,VWS V14.01,2013-02-23 18:00:00,
2013-02-23 13:06:00,35.6,13.0,29.98,NW,322,2.7,6.3,39,0.00,,---,0.00,VWS V14.01,2013-02-23 18:06:00,
2013-02-23 13:11:00,35.4,12.9,29.98,West,274,0.0,6.3,39,0.00,,---,0.00,VWS V14.01,2013-02-23 18:11:00,
2013-02-23 13:16:00,35.1,11.9,29.98,West,261,2.7,6.3,38,0.00,,---,0.00,VWS V14.01,2013-02-23 18:16:00,
2013-02-23 13:21:00,35.4,12.2,29.98,North,357,0.0,6.3,38,0.00,,---,0.00,VWS V14.01,2013-02-23 18:21:00,
2013-02-23 13:29:00,36.9,12.2,29.98,SW,227,3.6,3.6,36,0.00,,---,0.00,VWS V14.01,2013-02-23 18:29:00,
2013-02-23 13:34:00,37.2,11.8,29.95,NNW,338,2.2,4.9,35,0.00,,---,0.00,VWS V14.01,2013-02-23 18:34:00,
2013-02-23 13:39:00,37.6,12.1,29.95,SW,230,5.4,5.4,35,0.00,,---,0.00,VWS V14.01,2013-02-23 18:39:00,
2013-02-23 13:44:00,37.0,11.7,29.95,WSW,247,0.0,5.4,35,0.00,,---,0.00,VWS V14.01,2013-02-23 18:44:00,
2013-02-23 13:49:00,37.2,11.8,29.95,NW,311,2.7,5.4,35,0.00,,---,0.00,VWS V14.01,2013-02-23 18:49:00,
2013-02-23 13:54:00,37.0,11.7,29.95,SSW,210,2.7,6.3,35,0.00,,---,0.00,VWS V14.01,2013-02-23 18:54:00,
2013-02-23 13:59:00,36.9,11.5,29.95,SW,228,0.0,6.3,35,0.00,,---,0.00,VWS V14.01,2013-02-23 18:59:00,
2013-02-23 14:04:00,36.7,11.3,29.95,WSW,250,0.0,4.9,35,0.00,,---,0.00,VWS V14.01,2013-02-23 19:04:00,
2013-02-23 14:09:00,35.8,11.2,29.95,NW,326,0.0,6.3,36,0.00,,---,0.00,VWS V14.01,2013-02-23 19:09:00,
2013-02-23 14:14:00,35.6,11.7,29.95,WSW,244,0.0,6.3,37,0.00,,---,0.00,VWS V14.01,2013-02-23 19:14:00,
2013-02-23 14:19:00,35.1,11.9,29.98,SW,231,0.0,6.3,38,0.00,,---,0.00,VWS V14.01,2013-02-23 19:19:00,
2013-02-23 14:24:00,34.5,11.4,29.98,SW,221,4.0,6.3,38,0.00,,---,0.00,VWS V14.01,2013-02-23 19:24:00,
2013-02-23 14:29:00,34.7,12.2,29.98,SW,221,0.0,7.6,39,0.00,,---,0.00,VWS V14.01,2013-02-23 19:29:00,
2013-02-23 14:34:00,34.2,11.7,29.98,WNW,282,2.2,7.6,39,0.00,,---,0.00,VWS V14.01,2013-02-23 19:34:00,
2013-02-23 14:39:00,34.3,12.5,29.98,SW,236,3.1,7.6,40,0.00,,---,0.00,VWS V14.01,2013-02-23 19:39:00,
2013-02-23 14:44:00,34.2,11.1,29.98,WNW,299,3.6,7.6,38,0.00,,---,0.00,VWS V14.01,2013-02-23 19:44:00,
2013-02-23 14:49:00,33.8,12.0,29.98,WSW,237,0.0,7.6,40,0.00,,---,0.00,VWS V14.01,2013-02-23 19:49:00,
2013-02-23 14:54:00,33.8,11.4,29.98,West,261,3.6,7.6,39,0.00,,---,0.00,VWS V14.01,2013-02-23 19:54:00,
2013-02-23 14:59:00,33.6,11.2,29.98,WSW,239,0.0,7.6,39,0.00,,---,0.00,VWS V14.01,2013-02-23 19:59:00,
2013-02-23 15:07:00,33.4,11.7,29.98,SW,222,0.0,5.8,40,0.00,,---,0.00,VWS V14.01,2013-02-23 20:07:00,
2013-02-23 15:12:00,33.4,12.3,29.98,WSW,257,0.0,5.8,41,0.00,,---,0.00,VWS V14.01,2013-02-23 20:12:00,
2013-02-23 15:17:00,33.3,11.5,29.98,West,261,0.0,5.8,40,0.00,,---,0.00,VWS V14.01,2013-02-23 20:17:00,
2013-02-23 15:23:00,33.3,12.1,29.98,WSW,254,0.0,5.8,41,0.00,,---,0.00,VWS V14.01,2013-02-23 20:23:00,
2013-02-23 15:29:00,32.9,13.0,29.98,NE,39,0.0,5.8,43,0.00,,---,0.00,VWS V14.01,2013-02-23 20:29:00,
2013-02-23 15:34:00,32.7,12.2,29.95,WNW,289,0.0,5.8,42,0.00,,---,0.00,VWS V14.01,2013-02-23 20:34:00,
2013-02-23 15:39:00,32.5,12.6,29.95,WSW,250,0.0,5.8,43,0.00,,---,0.00,VWS V14.01,2013-02-23 20:39:00,
2013-02-23 15:44:00,32.4,11.9,29.95,WSW,256,0.0,5.8,42,0.00,,---,0.00,VWS V14.01,2013-02-23 20:44:00,
2013-02-23 15:49:00,32.4,12.5,29.95,West,265,0.0,5.8,43,0.00,,---,0.00,VWS V14.01,2013-02-23 20:49:00,
2013-02-23 15:54:00,32.2,11.8,29.95,WSW,241,4.0,5.8,42,0.00,,---,0.00,VWS V14.01,2013-02-23 20:54:00,
2013-02-23 15:59:00,32.0,11.6,29.95,NNW,329,0.0,5.8,42,0.00,,---,0.00,VWS V14.01,2013-02-23 20:59:00,
2013-02-23 16:04:00,32.2,11.2,29.95,North,353,0.0,3.6,41,0.00,,---,0.00,VWS V14.01,2013-02-23 21:04:00,
2013-02-23 16:09:00,32.2,11.8,29.95,North,0,0.0,4.0,42,0.00,,---,0.00,VWS V14.01,2013-02-23 21:09:00,
2013-02-23 16:14:00,32.2,11.2,29.95,NNW,330,0.0,5.4,41,0.00,,---,0.00,VWS V14.01,2013-02-23 21:14:00,
2013-02-23 16:19:00,32.0,11.0,29.95,WSW,251,0.0,5.4,41,0.00,,---,0.00,VWS V14.01,2013-02-23 21:19:00,
2013-02-23 16:24:00,32.0,11.6,29.95,NW,312,2.2,5.4,42,0.00,,---,0.00,VWS V14.01,2013-02-23 21:24:00,
2013-02-23 16:29:00,31.8,10.8,29.95,NNW,348,3.1,5.4,41,0.00,,---,0.00,VWS V14.01,2013-02-23 21:29:00,
2013-02-23 16:34:00,31.6,10.7,29.95,NNW,334,0.0,7.6,41,0.00,,---,0.00,VWS V14.01,2013-02-23 21:34:00,
2013-02-23 16:39:00,31.6,10.7,29.95,North,357,0.0,7.6,41,0.00,,---,0.00,VWS V14.01,2013-02-23 21:39:00,
2013-02-23 16:44:00,31.6,10.7,29.95,North,353,0.0,7.6,41,0.00,,---,0.00,VWS V14.01,2013-02-23 21:44:00,
2013-02-23 16:49:00,31.5,12.2,29.95,WNW,299,0.0,7.6,44,0.00,,---,0.00,VWS V14.01,2013-02-23 21:49:00,
2013-02-23 16:54:00,31.1,11.9,29.95,NNW,341,0.0,7.6,44,0.00,,---,0.00,VWS V14.01,2013-02-23 21:54:00,
2013-02-23 16:59:00,30.9,11.2,29.95,North,357,2.2,7.6,43,0.00,,---,0.00,VWS V14.01,2013-02-23 21:59:00,
2013-02-23 17:04:00,30.9,11.7,29.95,West,262,0.0,3.1,44,0.00,,---,0.00,VWS V14.01,2013-02-23 22:04:00,
2013-02-23 17:09:00,30.7,11.6,29.95,SW,227,0.0,5.4,44,0.00,,---,0.00,VWS V14.01,2013-02-23 22:09:00,
2013-02-23 17:14:00,30.6,11.4,29.95,West,268,0.0,5.4,44,0.00,,---,0.00,VWS V14.01,2013-02-23 22:14:00,
2013-02-23 17:19:00,30.4,11.2,29.95,West,266,0.0,5.4,44,0.00,,---,0.00,VWS V14.01,2013-02-23 22:19:00,
2013-02-23 17:24:00,30.2,11.1,29.95,North,353,0.0,5.4,44,0.00,,---,0.00,VWS V14.01,2013-02-23 22:24:00,
2013-02-23 17:29:00,30.2,11.6,29.95,West,276,0.0,5.4,45,0.00,,---,0.00,VWS V14.01,2013-02-23 22:29:00,
2013-02-23 17:34:00,30.0,10.9,29.95,WSW,255,0.0,5.4,44,0.00,,---,0.00,VWS V14.01,2013-02-23 22:34:00,
2013-02-23 17:39:00,29.8,10.7,29.95,NW,317,0.0,5.8,44,0.00,,---,0.00,VWS V14.01,2013-02-23 22:39:00,
2013-02-23 17:44:00,29.7,10.6,29.95,NNE,23,2.7,5.8,44,0.00,,---,0.00,VWS V14.01,2013-02-23 22:44:00,
2013-02-23 17:49:00,29.7,11.1,29.95,NW,319,0.0,5.8,45,0.00,,---,0.00,VWS V14.01,2013-02-23 22:49:00,
2013-02-23 17:54:00,29.5,10.9,29.95,NNW,334,0.0,5.8,45,0.00,,---,0.00,VWS V14.01,2013-02-23 22:54:00,
2013-02-23 18:00:00,29.5,10.9,29.95,North,0,0.0,5.8,45,0.00,,---,0.00,VWS V14.01,2013-02-23 23:00:00,
2013-02-23 18:05:00,29.5,10.9,29.95,West,262,0.0,0.0,45,0.00,,---,0.00,VWS V14.01,2013-02-23 23:05:00,
2013-02-23 18:10:00,29.3,10.8,29.95,NNW,329,0.0,0.0,45,0.00,,---,0.00,VWS V14.01,2013-02-23 23:10:00,
2013-02-23 18:15:00,29.3,10.8,29.95,NNW,342,0.0,0.0,45,0.00,,---,0.00,VWS V14.01,2013-02-23 23:15:00,
2013-02-23 18:20:00,29.1,10.6,29.95,SW,236,0.0,4.0,45,0.00,,---,0.00,VWS V14.01,2013-02-23 23:20:00,
2013-02-23 18:25:00,29.1,10.6,29.95,North,353,0.0,4.0,45,0.00,,---,0.00,VWS V14.01,2013-02-23 23:25:00,
2013-02-23 18:30:00,29.1,10.6,29.95,WNW,294,0.0,4.0,45,0.00,,---,0.00,VWS V14.01,2013-02-23 23:30:00,
2013-02-23 18:35:00,28.9,10.5,29.95,NNE,15,0.0,4.0,45,0.00,,---,0.00,VWS V14.01,2013-02-23 23:35:00,
2013-02-23 18:40:00,28.9,11.0,29.95,NW,314,0.0,4.0,46,0.00,,---,0.00,VWS V14.01,2013-02-23 23:40:00,
2013-02-23 18:45:00,28.9,11.0,29.95,NW,311,0.0,4.0,46,0.00,,---,0.00,VWS V14.01,2013-02-23 23:45:00,
2013-02-23 18:50:00,28.8,10.8,29.95,WNW,302,0.0,4.0,46,0.00,,---,0.00,VWS V14.01,2013-02-23 23:50:00,
2013-02-23 18:55:00,28.8,10.8,29.95,NNW,339,0.0,4.0,46,0.00,,---,0.00,VWS V14.01,2013-02-23 23:55:00,
2013-02-23 19:00:00,28.8,10.8,29.95,WNW,299,0.0,0.0,46,0.00,,---,0.00,VWS V14.01,2013-02-24 00:00:00,
2013-02-23 19:05:00,28.8,10.8,29.95,WNW,299,0.0,0.0,46,0.00,,---,0.00,VWS V14.01,2013-02-24 00:05:00,
2013-02-23 19:10:00,28.8,10.8,29.95,WNW,289,0.0,0.0,46,0.00,,---,0.00,VWS V14.01,2013-02-24 00:10:00,
2013-02-23 19:15:00,28.6,11.2,29.95,WNW,289,0.0,0.0,48,0.00,,---,0.00,VWS V14.01,2013-02-24 00:15:00,
2013-02-23 19:20:00,28.6,11.2,29.95,WNW,289,0.0,0.0,48,0.00,,---,0.00,VWS V14.01,2013-02-24 00:20:00,
2013-02-23 19:25:00,28.6,11.2,29.95,WNW,289,0.0,0.0,48,0.00,,---,0.00,VWS V14.01,2013-02-24 00:25:00,
2013-02-23 19:30:00,28.6,11.2,29.95,NNW,337,0.0,0.0,48,0.00,,---,0.00,VWS V14.01,2013-02-24 00:30:00,
2013-02-23 19:35:00,28.6,11.2,29.95,North,353,0.0,0.0,48,0.00,,---,0.00,VWS V14.01,2013-02-24 00:35:00,
2013-02-23 19:40:00,28.6,11.2,29.95,North,353,0.0,0.0,48,0.00,,---,0.00,VWS V14.01,2013-02-24 00:40:00,
2013-02-23 19:45:00,28.6,11.7,29.95,NNW,343,0.0,0.0,49,0.00,,---,0.00,VWS V14.01,2013-02-24 00:45:00,
2013-02-23 19:50:00,28.6,11.7,29.95,North,353,0.0,0.0,49,0.00,,---,0.00,VWS V14.01,2013-02-24 00:50:00,
2013-02-23 19:55:00,28.4,11.5,29.95,North,353,0.0,0.0,49,0.00,,---,0.00,VWS V14.01,2013-02-24 00:55:00,
2013-02-23 20:00:00,28.4,11.0,29.95,North,0,0.0,0.0,48,0.00,,---,0.00,VWS V14.01,2013-02-24 01:00:00,
2013-02-23 20:05:00,28.6,11.2,29.95,North,0,0.0,0.0,48,0.00,,---,0.00,VWS V14.01,2013-02-24 01:05:00,
2013-02-23 20:10:00,28.4,11.0,29.95,NNW,340,0.0,0.0,48,0.00,,---,0.00,VWS V14.01,2013-02-24 01:10:00,
2013-02-23 20:15:00,28.4,11.0,29.95,North,353,0.0,0.0,48,0.00,,---,0.00,VWS V14.01,2013-02-24 01:15:00,
2013-02-23 20:20:00,28.4,11.0,29.95,North,0,0.0,4.9,48,0.00,,---,0.00,VWS V14.01,2013-02-24 01:20:00,
2013-02-23 20:26:00,28.4,11.5,29.95,North,0,0.0,4.9,49,0.00,,---,0.00,VWS V14.01,2013-02-24 01:26:00,
2013-02-23 20:31:00,28.2,11.3,29.95,WNW,293,0.0,4.9,49,0.00,,---,0.00,VWS V14.01,2013-02-24 01:31:00,
2013-02-23 20:36:00,28.0,11.2,29.95,WNW,293,0.0,4.9,49,0.00,,---,0.00,VWS V14.01,2013-02-24 01:36:00,
2013-02-23 20:41:00,27.7,10.8,29.95,WNW,293,0.0,4.9,49,0.00,,---,0.00,VWS V14.01,2013-02-24 01:41:00,
2013-02-23 20:46:00,27.3,10.5,29.95,WNW,293,0.0,4.9,49,0.00,,---,0.00,VWS V14.01,2013-02-24 01:46:00,
2013-02-23 20:51:00,27.0,10.7,29.95,WNW,293,0.0,4.9,50,0.00,,---,0.00,VWS V14.01,2013-02-24 01:51:00,
2013-02-23 20:56:00,26.6,10.3,29.95,North,357,0.0,5.8,50,0.00,,---,0.00,VWS V14.01,2013-02-24 01:56:00,
2013-02-23 21:01:00,26.4,10.2,29.95,North,357,0.0,0.0,50,0.00,,---,0.00,VWS V14.01,2013-02-24 02:01:00,
2013-02-23 21:06:00,26.4,10.2,29.95,NW,325,0.0,2.2,50,0.00,,---,0.00,VWS V14.01,2013-02-24 02:06:00,
2013-02-23 21:11:00,26.8,10.0,29.95,WSW,257,0.0,2.7,49,0.00,,---,0.00,VWS V14.01,2013-02-24 02:11:00,
2013-02-23 21:16:00,27.0,10.2,29.95,NNW,329,0.0,3.1,49,0.00,,---,0.00,VWS V14.01,2013-02-24 02:16:00,
2013-02-23 21:21:00,27.3,10.5,29.95,NNW,332,0.0,3.1,49,0.00,,---,0.00,VWS V14.01,2013-02-24 02:21:00,
2013-02-23 21:26:00,27.3,10.5,29.95,West,278,0.0,3.1,49,0.00,,---,0.00,VWS V14.01,2013-02-24 02:26:00,
2013-02-23 21:31:00,27.5,10.7,29.95,NW,304,0.0,4.0,49,0.00,,---,0.00,VWS V14.01,2013-02-24 02:31:00,
2013-02-23 21:36:00,27.5,10.7,29.95,West,263,0.0,4.0,49,0.00,,---,0.00,VWS V14.01,2013-02-24 02:36:00,
2013-02-23 21:41:00,27.5,10.7,29.95,WSW,239,0.0,4.0,49,0.00,,---,0.00,VWS V14.01,2013-02-24 02:41:00,
2013-02-23 21:46:00,27.5,10.7,29.92,WSW,251,0.0,4.0,49,0.00,,---,0.00,VWS V14.01,2013-02-24 02:46:00,
2013-02-23 21:51:00,27.5,10.7,29.92,NW,315,0.0,4.0,49,0.00,,---,0.00,VWS V14.01,2013-02-24 02:51:00,
2013-02-23 21:56:00,27.3,10.5,29.92,NW,325,0.0,4.0,49,0.00,,---,0.00,VWS V14.01,2013-02-24 02:56:00,
2013-02-23 22:01:00,27.1,10.3,29.95,NNW,344,0.0,0.0,49,0.00,,---,0.00,VWS V14.01,2013-02-24 03:01:00,
2013-02-23 22:06:00,27.0,10.7,29.95,NNW,346,0.0,0.0,50,0.00,,---,0.00,VWS V14.01,2013-02-24 03:06:00,
2013-02-23 22:11:00,27.0,10.7,29.95,NNW,346,0.0,0.0,50,0.00,,---,0.00,VWS V14.01,2013-02-24 03:11:00,
2013-02-23 22:16:00,27.0,11.1,29.95,North,353,0.0,0.0,51,0.00,,---,0.00,VWS V14.01,2013-02-24 03:16:00,
2013-02-23 22:21:00,27.0,11.1,29.95,NNW,329,0.0,4.9,51,0.00,,---,0.00,VWS V14.01,2013-02-24 03:21:00,
2013-02-23 22:26:00,26.8,11.0,29.95,NW,315,0.0,4.9,51,0.00,,---,0.00,VWS V14.01,2013-02-24 03:26:00,
2013-02-23 22:31:00,26.8,11.0,29.92,North,357,0.0,4.9,51,0.00,,---,0.00,VWS V14.01,2013-02-24 03:31:00,
2013-02-23 22:36:00,26.8,11.0,29.92,North,357,0.0,4.9,51,0.00,,---,0.00,VWS V14.01,2013-02-24 03:36:00,
2013-02-23 22:41:00,26.8,11.5,29.92,NNW,342,0.0,4.9,52,0.00,,---,0.00,VWS V14.01,2013-02-24 03:41:00,
2013-02-23 22:46:00,26.8,11.5,29.92,WSW,248,0.0,4.9,52,0.00,,---,0.00,VWS V14.01,2013-02-24 03:46:00,
2013-02-23 22:51:00,26.8,11.5,29.92,North,357,0.0,4.9,52,0.00,,---,0.00,VWS V14.01,2013-02-24 03:51:00,
2013-02-23 22:57:00,26.8,11.5,29.92,North,349,0.0,5.4,52,0.00,,---,0.00,VWS V14.01,2013-02-24 03:57:00,
2013-02-23 23:02:00,26.8,11.5,29.92,NNW,340,0.0,0.0,52,0.00,,---,0.00,VWS V14.01,2013-02-24 04:02:00,
2013-02-23 23:07:00,26.8,11.5,29.92,WNW,282,0.0,0.0,52,0.00,,---,0.00,VWS V14.01,2013-02-24 04:07:00,
2013-02-23 23:12:00,26.8,11.5,29.92,West,281,0.0,0.0,52,0.00,,---,0.00,VWS V14.01,2013-02-24 04:12:00,
2013-02-23 23:17:00,26.6,11.8,29.92,WNW,290,0.0,0.0,53,0.00,,---,0.00,VWS V14.01,2013-02-24 04:17:00,
2013-02-23 23:22:00,26.6,11.8,29.92,WNW,290,0.0,0.0,53,0.00,,---,0.00,VWS V14.01,2013-02-24 04:22:00,
2013-02-23 23:27:00,26.6,11.8,29.92,NW,316,0.0,4.0,53,0.00,,---,0.00,VWS V14.01,2013-02-24 04:27:00,
2013-02-23 23:32:00,26.6,11.8,29.92,SW,229,0.0,4.0,53,0.00,,---,0.00,VWS V14.01,2013-02-24 04:32:00,
2013-02-23 23:37:00,26.4,12.0,29.92,WSW,254,0.0,4.0,54,0.00,,---,0.00,VWS V14.01,2013-02-24 04:37:00,
2013-02-23 23:42:00,26.4,12.0,29.92,WSW,254,0.0,4.0,54,0.00,,---,0.00,VWS V14.01,2013-02-24 04:42:00,
2013-02-23 23:47:00,26.4,12.0,29.92,West,262,0.0,4.0,54,0.00,,---,0.00,VWS V14.01,2013-02-24 04:47:00,
2013-02-23 23:52:00,26.4,12.5,29.92,WSW,252,0.0,4.0,55,0.00,,---,0.00,VWS V14.01,2013-02-24 04:52:00,
2013-02-23 23:57:00,26.4,12.5,29.92,WSW,252,0.0,4.0,55,0.00,,---,0.00,VWS V14.01,2013-02-24 04:57:00,